This is the latest recevied weather packets stored in our database for station/object AA4OM-2. If no packets are shown the sender has not sent any weather packets the latest 10 day(s).
| Time | Temp. | Humidity | Pressure | Rain* | Wind** | Luminosity | Snow |
|---|---|---|---|---|---|---|---|
| 1777340826 | 26.67° C | 66% | 1009.4 hPa | 0 mm | - | 0 W/m² | - |
| 1777340221 | 26.67° C | 67% | 1009 hPa | 0 mm | - | 0 W/m² | - |
| 1777339918 | 26.67° C | 68% | 1009.2 hPa | 0 mm | - | 0 W/m² | - |
| 1777339615 | 26.67° C | 68% | 1009.3 hPa | 0 mm | - | 0 W/m² | - |
| 1777339312 | 26.67° C | 68% | 1009.2 hPa | 0 mm | - | 0 W/m² | - |
| 1777339011 | 26.67° C | 68% | 1009.5 hPa | 0 mm | - | 0 W/m² | - |
| 1777338707 | 26.67° C | 68% | 1009.9 hPa | 0 mm | - | 0 W/m² | - |
| 1777338405 | 26.67° C | 68% | 1009.8 hPa | 0 mm | - | 0 W/m² | - |
| 1777338101 | 26.67° C | 69% | 1009.9 hPa | 0 mm | - | 0 W/m² | - |
| 1777337797 | 26.67° C | 69% | 1010 hPa | 0 mm | - | 0 W/m² | - |
| 1777337495 | 26.67° C | 69% | 1009.9 hPa | 0 mm | - | 0 W/m² | - |
| 1777336889 | 26.67° C | 70% | 1010 hPa | 0 mm | - | 1 W/m² | - |
| 1777336588 | 26.67° C | 70% | 1010 hPa | 0 mm | - | 1 W/m² | - |
| 1777336286 | 26.67° C | 69% | 1010 hPa | 0 mm | - | 2 W/m² | - |
| 1777335376 | 26.67° C | 68% | 1010.2 hPa | 0 mm | - | 7 W/m² | - |
| 1777334772 | 26.67° C | 68% | 1010 hPa | 0 mm | - | 9 W/m² | - |
| 1777334469 | 26.67° C | 69% | 1009.9 hPa | 0 mm | - | 13 W/m² | - |
| 1777332655 | 27.22° C | 68% | 1009.8 hPa | 0 mm | - | 29 W/m² | - |
| 1777332351 | 27.22° C | 67% | 1009.8 hPa | 0 mm | - | 60 W/m² | - |
| 1777311463 | 27.22° C | 65% | 1012.4 hPa | 0 mm | - | 950 W/m² | - |
| 1777311159 | 27.22° C | 64% | 1012.5 hPa | 0 mm | - | 235 W/m² | - |
| 1777310858 | 26.67° C | 66% | 1012.3 hPa | 0 mm | - | 324 W/m² | - |
| 1777310252 | 26.67° C | 64% | 1012.8 hPa | 0 mm | - | 216 W/m² | - |
| 1777309647 | 26.67° C | 64% | 1012.6 hPa | 0 mm | - | 376 W/m² | - |
| 1777307524 | 26.67° C | 65% | 1013.1 hPa | 0 mm | - | 594 W/m² | - |
* Rain latest hour (hover to see other rain measurements)
** Current wind speed in m/s (hover to see current wind gust speed)